Time;durP1;ratioP1;P1;durP2;ratioP2;P2;SDS_P1;SDS_P2;PMS_P1;PMS_P2;Temp;Humidity;BMP_temperature;BMP_pressure;BME280_temperature;BME280_humidity;BME280_pressure;Samples;Min_cycle;Max_cycle;Signal;HPM_P1;HPM_P2
2021/04/22 00:02:21;;;;;;;0.10;0.10;;;;;;;;;;5012737;28;20183;-58
2021/04/22 00:04:50;;;;;;;0.00;0.00;;;;;;;;;;5014004;28;20475;-58
2021/04/22 00:07:19;;;;;;;0.30;0.30;;;;;;;;;;5011387;28;20183;-58
2021/04/22 00:09:48;;;;;;;0.00;0.00;;;;;;;;;;5015919;28;20213;-64
2021/04/22 00:12:14;;;;;;;0.00;0.00;;;;;;;;;;5015778;28;20195;-64
2021/04/22 00:14:41;;;;;;;0.20;0.20;;;;;;;;;;5016150;28;20204;-64
2021/04/22 00:17:10;;;;;;;0.00;0.00;;;;;;;;;;5014838;28;20196;-64
2021/04/22 00:19:37;;;;;;;0.53;0.53;;;;;;;;;;5009992;28;20271;-64
2021/04/22 00:22:04;;;;;;;0.00;0.00;;;;;;;;;;5012310;28;20210;-64
2021/04/22 00:24:31;;;;;;;0.00;0.00;;;;;;;;;;5015450;28;20227;-65
2021/04/22 00:26:59;;;;;;;0.30;0.30;;;;;;;;;;5015748;28;20183;-64
2021/04/22 00:29:25;;;;;;;0.63;0.30;;;;;;;;;;5015719;28;20179;-64
2021/04/22 00:31:52;;;;;;;0.00;0.00;;;;;;;;;;5015355;28;20727;-65
2021/04/22 00:34:18;;;;;;;0.10;0.10;;;;;;;;;;5010785;28;20201;-64
2021/04/22 00:36:45;;;;;;;4.43;1.30;;;;;;;;;;5012058;28;20216;-63
2021/04/22 00:39:12;;;;;;;0.00;0.00;;;;;;;;;;5007585;28;20186;-65
2021/04/22 00:41:38;;;;;;;1.90;0.67;;;;;;;;;;5009118;28;20214;-64
2021/04/22 00:44:08;;;;;;;0.50;0.50;;;;;;;;;;5010260;28;20196;-64
2021/04/22 00:46:36;;;;;;;0.60;0.33;;;;;;;;;;5013857;28;20294;-64
2021/04/22 00:49:02;;;;;;;0.10;0.10;;;;;;;;;;5015854;28;20194;-64
2021/04/22 00:51:29;;;;;;;0.10;0.10;;;;;;;;;;5011674;28;20924;-65
2021/04/22 00:53:56;;;;;;;0.10;0.10;;;;;;;;;;5013012;28;20191;-65
2021/04/22 00:56:23;;;;;;;0.00;0.00;;;;;;;;;;5014479;28;20227;-66
2021/04/22 00:58:50;;;;;;;0.00;0.00;;;;;;;;;;5015805;28;20195;-65
2021/04/22 01:01:17;;;;;;;0.00;0.00;;;;;;;;;;5014396;28;20292;-67
2021/04/22 01:03:46;;;;;;;0.00;0.00;;;;;;;;;;5008412;28;20195;-68
2021/04/22 01:09:04;;;;;;;0.00;0.00;;;;;;;;;;5037566;23;20320;-59
2021/04/22 01:11:31;;;;;;;0.30;0.30;;;;;;;;;;5030872;28;20197;-59
2021/04/22 01:14:00;;;;;;;2.47;0.50;;;;;;;;;;5044035;28;20190;-59
2021/04/22 01:16:27;;;;;;;0.00;0.00;;;;;;;;;;5014211;28;20190;-59
2021/04/22 01:18:53;;;;;;;0.50;0.50;;;;;;;;;;5032150;28;20194;-59
2021/04/22 01:21:27;;;;;;;18.90;0.83;;;;;;;;;;5037295;28;20313;-61
2021/04/22 01:23:56;;;;;;;0.37;0.37;;;;;;;;;;5033013;28;20179;-60
2021/04/22 01:26:26;;;;;;;0.50;0.50;;;;;;;;;;5032387;28;20229;-59
2021/04/22 01:28:52;;;;;;;0.10;0.10;;;;;;;;;;5032583;28;20183;-60
2021/04/22 01:31:22;;;;;;;0.00;0.00;;;;;;;;;;5029675;28;20193;-60
2021/04/22 01:33:50;;;;;;;0.00;0.00;;;;;;;;;;5044603;28;20880;-60
2021/04/22 01:36:19;;;;;;;0.20;0.20;;;;;;;;;;5035604;28;20680;-60
2021/04/22 01:38:46;;;;;;;0.10;0.10;;;;;;;;;;5038236;28;20702;-60
2021/04/22 01:41:12;;;;;;;0.00;0.00;;;;;;;;;;5035034;28;20237;-59
2021/04/22 01:43:39;;;;;;;0.83;0.83;;;;;;;;;;5037787;28;20187;-60
2021/04/22 01:46:05;;;;;;;0.00;0.00;;;;;;;;;;5037134;28;20253;-59
2021/04/22 01:48:32;;;;;;;3.03;0.33;;;;;;;;;;5031092;28;20184;-60
2021/04/22 01:50:59;;;;;;;0.97;0.30;;;;;;;;;;5033631;28;20191;-60
2021/04/22 01:53:25;;;;;;;0.00;0.00;;;;;;;;;;5034058;28;20190;-60
2021/04/22 01:55:52;;;;;;;0.00;0.00;;;;;;;;;;5038981;28;21496;-60
2021/04/22 01:58:20;;;;;;;1.60;0.93;;;;;;;;;;5031397;28;20195;-60
2021/04/22 02:00:52;;;;;;;0.83;0.83;;;;;;;;;;5027756;28;20297;-60
2021/04/22 02:03:18;;;;;;;0.10;0.10;;;;;;;;;;5039455;28;20180;-60
2021/04/22 02:05:45;;;;;;;0.20;0.20;;;;;;;;;;5033438;28;20180;-60
2021/04/22 02:08:14;;;;;;;0.00;0.00;;;;;;;;;;5039098;28;20228;-60
2021/04/22 02:10:41;;;;;;;0.00;0.00;;;;;;;;;;5040571;28;20187;-60
2021/04/22 02:13:09;;;;;;;0.10;0.10;;;;;;;;;;5038288;28;20259;-60
2021/04/22 02:15:36;;;;;;;0.00;0.00;;;;;;;;;;5037212;28;20529;-59
2021/04/22 02:18:03;;;;;;;1.87;1.07;;;;;;;;;;5038725;28;20189;-60
2021/04/22 02:20:29;;;;;;;0.20;0.20;;;;;;;;;;5039007;28;20218;-60
2021/04/22 02:22:57;;;;;;;0.00;0.00;;;;;;;;;;5037120;28;20296;-60
2021/04/22 02:25:25;;;;;;;0.20;0.20;;;;;;;;;;5035283;28;20202;-60
2021/04/22 02:27:52;;;;;;;0.00;0.00;;;;;;;;;;5030713;28;20221;-60
2021/04/22 02:30:29;;;;;;;4.70;1.90;;;;;;;;;;5038067;28;20279;-60
2021/04/22 02:32:56;;;;;;;0.13;0.13;;;;;;;;;;5037498;28;20187;-61
2021/04/22 02:35:25;;;;;;;8.17;1.27;;;;;;;;;;5033729;28;20339;-60
2021/04/22 02:37:51;;;;;;;1.50;0.20;;;;;;;;;;5034536;28;20214;-60
2021/04/22 02:40:19;;;;;;;1.60;0.50;;;;;;;;;;5039436;28;20176;-60
2021/04/22 02:42:46;;;;;;;6.33;1.13;;;;;;;;;;5042748;28;22118;-60
2021/04/22 02:45:14;;;;;;;0.00;0.00;;;;;;;;;;5037387;28;21019;-60
2021/04/22 02:47:41;;;;;;;0.30;0.23;;;;;;;;;;5036197;28;20607;-60
2021/04/22 02:50:09;;;;;;;0.00;0.00;;;;;;;;;;5033551;28;20233;-60
2021/04/22 02:52:36;;;;;;;0.50;0.50;;;;;;;;;;5035714;28;20718;-60
2021/04/22 02:55:03;;;;;;;6.43;1.50;;;;;;;;;;5036850;28;20312;-61
2021/04/22 02:57:30;;;;;;;1.30;1.20;;;;;;;;;;5020234;28;20184;-61
2021/04/22 02:59:56;;;;;;;0.00;0.00;;;;;;;;;;5034545;28;20276;-61
2021/04/22 03:02:23;;;;;;;0.00;0.00;;;;;;;;;;5035362;28;20824;-61
2021/04/22 03:04:49;;;;;;;0.00;0.00;;;;;;;;;;5037006;28;20242;-61
2021/04/22 03:07:16;;;;;;;0.00;0.00;;;;;;;;;;5033756;28;21058;-61
2021/04/22 03:09:42;;;;;;;0.00;0.00;;;;;;;;;;5030908;28;20543;-61
2021/04/22 03:12:09;;;;;;;0.00;0.00;;;;;;;;;;5030359;28;20506;-61
2021/04/22 03:14:36;;;;;;;1.97;0.40;;;;;;;;;;5034039;28;20198;-61
2021/04/22 03:17:02;;;;;;;0.00;0.00;;;;;;;;;;5036998;28;20349;-61
2021/04/22 03:19:29;;;;;;;0.10;0.10;;;;;;;;;;5040048;28;20182;-61
2021/04/22 03:21:57;;;;;;;0.10;0.10;;;;;;;;;;5038041;28;20675;-61
2021/04/22 03:24:24;;;;;;;1.73;0.37;;;;;;;;;;5030776;28;20194;-61
2021/04/22 03:26:51;;;;;;;5.80;1.40;;;;;;;;;;5034277;28;20241;-61
2021/04/22 03:29:19;;;;;;;2.93;0.70;;;;;;;;;;5035996;28;20318;-61
2021/04/22 03:31:46;;;;;;;6.40;1.70;;;;;;;;;;5033926;28;20411;-61
2021/04/22 03:34:12;;;;;;;0.00;0.00;;;;;;;;;;5045441;28;20190;-60
2021/04/22 03:36:40;;;;;;;0.20;0.20;;;;;;;;;;5033897;28;21031;-60
2021/04/22 03:39:07;;;;;;;0.17;0.17;;;;;;;;;;5033115;28;20194;-60
2021/04/22 03:41:34;;;;;;;1.33;0.23;;;;;;;;;;5035096;28;20226;-60
2021/04/22 03:44:00;;;;;;;0.07;0.07;;;;;;;;;;5034734;28;20228;-60
2021/04/22 03:46:27;;;;;;;0.00;0.00;;;;;;;;;;5038572;28;20210;-60
2021/04/22 12:57:54;;;;;;;0.00;0.00;;;;;;;;;;5043860;28;21471;-57
2021/04/22 13:00:41;;;;;;;2.30;0.40;;;;;;;;;;5031226;28;20657;-58
2021/04/22 13:03:24;;;;;;;0.00;0.00;;;;;;;;;;5033831;28;20208;-57
2021/04/22 13:06:11;;;;;;;0.00;0.00;;;;;;;;;;5037182;28;20436;-67
2021/04/22 13:08:38;;;;;;;2.77;0.77;;;;;;;;;;5037477;28;20213;-66
2021/04/22 13:11:05;;;;;;;1.00;0.93;;;;;;;;;;5037325;28;20629;-66
2021/04/22 13:13:34;;;;;;;0.63;0.40;;;;;;;;;;5037472;28;20649;-65
2021/04/22 13:16:07;;;;;;;0.67;0.27;;;;;;;;;;5037026;28;20222;-66
2021/04/22 13:18:37;;;;;;;0.30;0.17;;;;;;;;;;5037415;28;20190;-66
2021/04/22 13:21:04;;;;;;;1.20;1.20;;;;;;;;;;5037095;28;20199;-65
2021/04/22 13:23:35;;;;;;;1.20;0.60;;;;;;;;;;5039457;28;20192;-65
2021/04/22 13:26:13;;;;;;;2.73;2.53;;;;;;;;;;5036139;28;20699;-66
2021/04/22 13:28:39;;;;;;;0.30;0.00;;;;;;;;;;5037266;28;20542;-66
2021/04/22 13:31:16;;;;;;;1.57;1.50;;;;;;;;;;5036896;28;20637;-66
2021/04/22 13:33:43;;;;;;;0.77;0.50;;;;;;;;;;5036322;28;20187;-65
2021/04/22 13:36:11;;;;;;;2.53;0.83;;;;;;;;;;5036845;28;20409;-67
2021/04/22 13:38:38;;;;;;;0.53;0.43;;;;;;;;;;5048222;28;20183;-65
2021/04/22 13:41:09;;;;;;;1.00;0.40;;;;;;;;;;5055556;28;20184;-65
2021/04/22 13:43:36;;;;;;;0.17;0.17;;;;;;;;;;5048382;28;20174;-65
2021/04/22 13:46:03;;;;;;;1.90;0.27;;;;;;;;;;5037163;28;20213;-65
2021/04/22 13:48:32;;;;;;;0.93;0.53;;;;;;;;;;5036895;28;20716;-66
2021/04/22 13:51:18;;;;;;;0.00;0.00;;;;;;;;;;5036874;28;20192;-66
2021/04/22 13:53:45;;;;;;;0.20;0.17;;;;;;;;;;5036796;28;20194;-66
2021/04/22 13:56:11;;;;;;;0.00;0.00;;;;;;;;;;5035851;28;20301;-66
2021/04/22 13:58:39;;;;;;;3.60;0.70;;;;;;;;;;5043717;28;20182;-66
2021/04/22 14:01:07;;;;;;;0.00;0.00;;;;;;;;;;5036449;28;20368;-67
2021/04/22 14:03:36;;;;;;;14.53;0.50;;;;;;;;;;5039123;28;20223;-66
2021/04/22 14:06:07;;;;;;;0.00;0.00;;;;;;;;;;5036364;28;20275;-66
2021/04/22 14:08:34;;;;;;;1.57;0.30;;;;;;;;;;5025968;28;20192;-67
2021/04/22 14:11:17;;;;;;;0.03;0.03;;;;;;;;;;5031776;28;20280;-66
2021/04/22 14:13:48;;;;;;;0.73;0.63;;;;;;;;;;5022215;28;20184;-65
2021/04/22 14:16:16;;;;;;;0.00;0.00;;;;;;;;;;5021918;28;20918;-66
2021/04/22 14:18:43;;;;;;;0.30;0.00;;;;;;;;;;5021462;28;20192;-66
2021/04/22 14:21:09;;;;;;;0.33;0.10;;;;;;;;;;5022224;28;20427;-66
2021/04/22 14:23:36;;;;;;;0.00;0.00;;;;;;;;;;5021347;28;20181;-66
2021/04/22 14:26:03;;;;;;;0.27;0.10;;;;;;;;;;5027885;28;20530;-65
2021/04/22 14:28:29;;;;;;;1.33;0.60;;;;;;;;;;5022454;28;20622;-66
2021/04/22 14:30:56;;;;;;;0.00;0.00;;;;;;;;;;5021938;28;20506;-65
2021/04/22 14:33:22;;;;;;;0.10;0.10;;;;;;;;;;5028174;28;20523;-66
2021/04/22 14:35:50;;;;;;;11.03;1.03;;;;;;;;;;5020806;28;20214;-66
2021/04/22 14:38:16;;;;;;;0.00;0.00;;;;;;;;;;5021736;28;20200;-66
2021/04/22 14:40:43;;;;;;;0.30;0.20;;;;;;;;;;5021580;28;20243;-65
2021/04/22 14:43:10;;;;;;;0.30;0.30;;;;;;;;;;5021341;28;20380;-64
2021/04/22 14:45:36;;;;;;;1.03;0.83;;;;;;;;;;5021326;28;20180;-65
2021/04/22 14:48:03;;;;;;;0.57;0.17;;;;;;;;;;5020566;28;20297;-65
2021/04/22 14:50:29;;;;;;;0.13;0.13;;;;;;;;;;5021074;28;20234;-66
2021/04/22 14:52:56;;;;;;;0.20;0.20;;;;;;;;;;5021279;28;20193;-65
2021/04/22 14:55:22;;;;;;;0.73;0.30;;;;;;;;;;5020644;28;20184;-65
2021/04/22 14:57:49;;;;;;;0.77;0.33;;;;;;;;;;5021129;28;20611;-65
2021/04/22 15:00:16;;;;;;;0.27;0.10;;;;;;;;;;5021235;28;20180;-66
2021/04/22 15:02:43;;;;;;;0.10;0.10;;;;;;;;;;5020989;28;20269;-66
2021/04/22 15:05:10;;;;;;;0.97;0.47;;;;;;;;;;5021517;28;20184;-65
2021/04/22 15:07:37;;;;;;;1.57;0.20;;;;;;;;;;5020521;28;20196;-65
2021/04/22 15:10:04;;;;;;;0.07;0.00;;;;;;;;;;5020902;28;20226;-65
2021/04/22 15:12:30;;;;;;;0.57;0.33;;;;;;;;;;5024843;28;20189;-65
2021/04/22 15:14:57;;;;;;;1.93;0.40;;;;;;;;;;5025862;28;20270;-65
2021/04/22 15:17:24;;;;;;;0.50;0.40;;;;;;;;;;5020986;28;20243;-66
2021/04/22 15:19:51;;;;;;;0.00;0.00;;;;;;;;;;5019913;28;20198;-66
2021/04/22 15:22:18;;;;;;;0.40;0.20;;;;;;;;;;5020619;28;20187;-67
2021/04/22 15:24:46;;;;;;;0.00;0.00;;;;;;;;;;5029421;28;20861;-67
2021/04/22 15:27:12;;;;;;;0.10;0.10;;;;;;;;;;5039002;28;20216;-66
2021/04/22 15:29:43;;;;;;;1.63;1.53;;;;;;;;;;5038987;28;20189;-66
2021/04/22 15:32:10;;;;;;;1.70;0.30;;;;;;;;;;5025480;28;20516;-67
2021/04/22 15:34:36;;;;;;;2.27;0.43;;;;;;;;;;5020136;28;20194;-67
2021/04/22 15:37:03;;;;;;;2.23;0.77;;;;;;;;;;5020093;28;20232;-67
2021/04/22 15:39:30;;;;;;;0.00;0.00;;;;;;;;;;5021694;28;20235;-67
2021/04/22 15:41:56;;;;;;;4.50;1.87;;;;;;;;;;5021469;28;20573;-67
2021/04/22 15:44:23;;;;;;;1.60;0.10;;;;;;;;;;5019320;28;20180;-67
2021/04/22 15:46:50;;;;;;;1.80;1.00;;;;;;;;;;5019763;28;20615;-67
2021/04/22 15:49:16;;;;;;;0.00;0.00;;;;;;;;;;5019369;28;20680;-68
2021/04/22 15:51:43;;;;;;;0.47;0.27;;;;;;;;;;5019948;28;20222;-67
2021/04/22 15:54:11;;;;;;;6.60;1.27;;;;;;;;;;5028053;28;20193;-67
2021/04/22 15:56:39;;;;;;;0.10;0.00;;;;;;;;;;5025263;28;20235;-68
2021/04/22 15:59:05;;;;;;;0.00;0.00;;;;;;;;;;5021844;28;20176;-67
2021/04/22 16:01:33;;;;;;;2.53;0.90;;;;;;;;;;5019001;28;20194;-66
2021/04/22 16:04:00;;;;;;;0.60;0.10;;;;;;;;;;5021104;28;20665;-59
2021/04/22 16:06:27;;;;;;;2.07;0.33;;;;;;;;;;5018807;28;20540;-59
2021/04/22 16:08:53;;;;;;;0.73;0.00;;;;;;;;;;5017721;28;20189;-59
2021/04/22 16:11:20;;;;;;;0.00;0.00;;;;;;;;;;5033634;28;20485;-59
2021/04/22 16:13:47;;;;;;;0.20;0.20;;;;;;;;;;5036879;28;20188;-59
2021/04/22 16:16:13;;;;;;;0.00;0.00;;;;;;;;;;5038095;28;20213;-59
2021/04/22 16:18:41;;;;;;;0.10;0.10;;;;;;;;;;5037678;28;20210;-59
2021/04/22 16:21:07;;;;;;;2.53;0.90;;;;;;;;;;5024491;28;20213;-59
2021/04/22 16:23:34;;;;;;;0.77;0.23;;;;;;;;;;5020328;28;20504;-66
2021/04/22 16:26:01;;;;;;;3.97;1.20;;;;;;;;;;5021574;28;20192;-67
2021/04/22 16:28:28;;;;;;;0.20;0.20;;;;;;;;;;5018732;28;20641;-64
2021/04/22 16:30:55;;;;;;;0.00;0.00;;;;;;;;;;5019919;28;20219;-64
2021/04/22 16:33:21;;;;;;;0.20;0.20;;;;;;;;;;5024126;28;20181;-63
2021/04/22 16:35:48;;;;;;;0.00;0.00;;;;;;;;;;5019116;28;20196;-64
2021/04/22 16:38:14;;;;;;;0.97;0.20;;;;;;;;;;5017336;28;20589;-65
2021/04/22 16:40:41;;;;;;;0.10;0.10;;;;;;;;;;5018294;28;20270;-65
2021/04/22 16:43:07;;;;;;;1.47;0.53;;;;;;;;;;5019162;28;20187;-65
2021/04/22 16:45:34;;;;;;;0.33;0.20;;;;;;;;;;5032541;28;20664;-65
2021/04/22 16:48:01;;;;;;;0.30;0.03;;;;;;;;;;5037748;28;20567;-64
2021/04/22 16:50:28;;;;;;;0.10;0.10;;;;;;;;;;5037757;28;20612;-66
2021/04/22 16:52:56;;;;;;;0.00;0.00;;;;;;;;;;5037721;28;20192;-64
2021/04/22 16:55:23;;;;;;;0.10;0.10;;;;;;;;;;5037261;28;20187;-58
2021/04/22 16:57:50;;;;;;;0.00;0.00;;;;;;;;;;5036835;28;20586;-58
2021/04/22 17:00:20;;;;;;;0.07;0.00;;;;;;;;;;5032344;28;20246;-58
2021/04/22 17:02:47;;;;;;;0.40;0.23;;;;;;;;;;5019150;28;20269;-58
2021/04/22 17:05:16;;;;;;;0.00;0.00;;;;;;;;;;5018074;28;20193;-58
2021/04/22 17:07:42;;;;;;;0.00;0.00;;;;;;;;;;5019861;28;20216;-58
2021/04/22 17:10:09;;;;;;;0.00;0.00;;;;;;;;;;5037300;28;20219;-58
2021/04/22 17:12:36;;;;;;;0.00;0.00;;;;;;;;;;5023064;28;20188;-58
2021/04/22 17:15:03;;;;;;;0.73;0.40;;;;;;;;;;5019575;28;20664;-58
2021/04/22 17:17:29;;;;;;;0.10;0.00;;;;;;;;;;5019672;28;20236;-58
2021/04/22 17:19:55;;;;;;;0.87;0.30;;;;;;;;;;5037393;28;20188;-57
2021/04/22 17:22:22;;;;;;;1.43;0.53;;;;;;;;;;5037746;28;20192;-58
2021/04/22 17:24:48;;;;;;;0.00;0.00;;;;;;;;;;5036982;28;20694;-58
2021/04/22 17:27:15;;;;;;;1.43;0.27;;;;;;;;;;5037597;28;20194;-58
2021/04/22 17:29:41;;;;;;;2.00;0.60;;;;;;;;;;5033484;28;20242;-58
2021/04/22 17:32:08;;;;;;;0.33;0.33;;;;;;;;;;5020954;28;20562;-58
2021/04/22 17:34:35;;;;;;;1.33;0.67;;;;;;;;;;5018100;28;20255;-58
2021/04/22 17:37:02;;;;;;;0.10;0.10;;;;;;;;;;5021127;28;20245;-58
2021/04/22 17:39:28;;;;;;;9.97;6.77;;;;;;;;;;5018458;28;20186;-58
2021/04/22 17:41:57;;;;;;;1.50;1.43;;;;;;;;;;5017998;28;20543;-58
2021/04/22 17:44:23;;;;;;;0.67;0.50;;;;;;;;;;5015216;28;20189;-58
2021/04/22 17:46:50;;;;;;;0.00;0.00;;;;;;;;;;5022211;28;20187;-58
2021/04/22 17:49:17;;;;;;;0.00;0.00;;;;;;;;;;5021896;28;20189;-57
2021/04/22 17:51:43;;;;;;;4.63;0.20;;;;;;;;;;5015488;28;20196;-58
2021/04/22 17:54:11;;;;;;;1.00;0.43;;;;;;;;;;5024412;28;20276;-58
2021/04/22 17:56:37;;;;;;;0.83;0.20;;;;;;;;;;5014782;28;20249;-58
2021/04/22 17:59:04;;;;;;;3.73;0.53;;;;;;;;;;5041252;28;20480;-58
2021/04/22 18:01:31;;;;;;;0.00;0.00;;;;;;;;;;5024211;28;20188;-58
2021/04/22 18:03:57;;;;;;;0.37;0.20;;;;;;;;;;5024116;28;20780;-58
2021/04/22 18:06:24;;;;;;;0.23;0.23;;;;;;;;;;5021652;28;20181;-58
2021/04/22 18:08:51;;;;;;;0.13;0.10;;;;;;;;;;5021609;28;20187;-58
2021/04/22 18:11:18;;;;;;;0.10;0.10;;;;;;;;;;5020819;28;20191;-58
2021/04/22 18:13:45;;;;;;;1.60;0.40;;;;;;;;;;5033789;28;20184;-58
2021/04/22 18:16:13;;;;;;;0.20;0.20;;;;;;;;;;5036571;28;20238;-58
2021/04/22 18:18:39;;;;;;;1.87;0.40;;;;;;;;;;5020411;28;20185;-58
2021/04/22 18:21:06;;;;;;;0.93;0.40;;;;;;;;;;5014788;28;20195;-58
2021/04/22 18:23:32;;;;;;;0.10;0.10;;;;;;;;;;5010908;28;20180;-58
2021/04/22 18:26:00;;;;;;;0.30;0.17;;;;;;;;;;5018103;28;20191;-58
2021/04/22 18:28:26;;;;;;;0.20;0.20;;;;;;;;;;5018635;28;20190;-58
2021/04/22 18:30:53;;;;;;;0.30;0.00;;;;;;;;;;5022267;28;20185;-58
2021/04/22 18:33:21;;;;;;;0.00;0.00;;;;;;;;;;5026298;28;20187;-58
2021/04/22 18:35:48;;;;;;;3.70;0.43;;;;;;;;;;5018448;28;20200;-59
2021/04/22 18:38:15;;;;;;;2.47;1.10;;;;;;;;;;5014347;28;20183;-58
2021/04/22 18:40:44;;;;;;;2.53;1.17;;;;;;;;;;5008461;28;20570;-58
2021/04/22 18:43:10;;;;;;;4.80;2.10;;;;;;;;;;5018209;28;20184;-58
2021/04/22 18:45:37;;;;;;;1.57;0.37;;;;;;;;;;5014333;28;20531;-58
2021/04/22 18:48:04;;;;;;;0.30;0.30;;;;;;;;;;5016111;28;20259;-58
2021/04/22 18:50:31;;;;;;;0.67;0.50;;;;;;;;;;5018159;28;20191;-58
2021/04/22 18:52:58;;;;;;;0.77;0.77;;;;;;;;;;5012538;28;20194;-58
2021/04/22 18:55:25;;;;;;;3.33;0.50;;;;;;;;;;5014084;28;20566;-58
2021/04/22 18:57:53;;;;;;;0.60;0.17;;;;;;;;;;5017430;28;20273;-58
2021/04/22 19:00:22;;;;;;;0.13;0.13;;;;;;;;;;5012484;28;20213;-58
2021/04/22 19:02:50;;;;;;;2.20;0.30;;;;;;;;;;5024259;28;20582;-58
2021/04/22 19:05:17;;;;;;;0.03;0.03;;;;;;;;;;5032032;28;20573;-58
2021/04/22 19:07:44;;;;;;;0.00;0.00;;;;;;;;;;5013103;28;20751;-58
2021/04/22 19:10:12;;;;;;;0.93;0.93;;;;;;;;;;5014974;28;20202;-58
2021/04/22 19:12:38;;;;;;;1.43;0.40;;;;;;;;;;5010994;28;20200;-58
2021/04/22 19:15:06;;;;;;;4.60;2.30;;;;;;;;;;5020007;28;20607;-58
2021/04/22 19:17:33;;;;;;;0.20;0.20;;;;;;;;;;5021496;28;20211;-59
2021/04/22 19:19:59;;;;;;;0.40;0.40;;;;;;;;;;5014522;28;20307;-58
2021/04/22 19:22:26;;;;;;;0.77;0.33;;;;;;;;;;5011305;28;20219;-58
2021/04/22 19:24:52;;;;;;;2.83;0.23;;;;;;;;;;5025470;28;20260;-57
2021/04/22 19:27:18;;;;;;;0.00;0.00;;;;;;;;;;5024980;28;20196;-58
2021/04/22 19:29:45;;;;;;;0.20;0.03;;;;;;;;;;5017418;28;20556;-58
2021/04/22 19:32:12;;;;;;;0.00;0.00;;;;;;;;;;5014959;28;20197;-58
2021/04/22 19:34:38;;;;;;;0.80;0.20;;;;;;;;;;5013767;28;20193;-59
2021/04/22 19:37:05;;;;;;;3.80;1.00;;;;;;;;;;5013071;28;20260;-59
2021/04/22 19:39:31;;;;;;;0.17;0.10;;;;;;;;;;5011840;28;22134;-59
2021/04/22 19:41:59;;;;;;;1.60;0.40;;;;;;;;;;5015516;28;20207;-59
2021/04/22 19:44:26;;;;;;;0.00;0.00;;;;;;;;;;5025093;28;20174;-59
2021/04/22 19:46:53;;;;;;;0.07;0.00;;;;;;;;;;5031408;28;20527;-58
2021/04/22 19:49:19;;;;;;;0.00;0.00;;;;;;;;;;5014661;28;20197;-58
2021/04/22 19:51:46;;;;;;;1.17;0.50;;;;;;;;;;5021824;28;20195;-59
2021/04/22 19:54:13;;;;;;;0.00;0.00;;;;;;;;;;5021767;28;20199;-59
2021/04/22 19:56:40;;;;;;;0.00;0.00;;;;;;;;;;5019332;28;20247;-58
2021/04/22 19:59:06;;;;;;;0.50;0.20;;;;;;;;;;5032835;28;20265;-59
2021/04/22 20:01:33;;;;;;;0.00;0.00;;;;;;;;;;5014251;28;20192;-58
2021/04/22 20:03:59;;;;;;;0.00;0.00;;;;;;;;;;5019165;28;20294;-58
2021/04/22 20:06:26;;;;;;;0.10;0.10;;;;;;;;;;5025217;28;20273;-58
2021/04/22 20:08:53;;;;;;;4.53;0.40;;;;;;;;;;5022993;28;20191;-59
2021/04/22 20:11:21;;;;;;;0.00;0.00;;;;;;;;;;5022938;28;20280;-58
2021/04/22 20:13:47;;;;;;;0.00;0.00;;;;;;;;;;5014024;28;20620;-59
2021/04/22 20:16:14;;;;;;;0.67;0.10;;;;;;;;;;5018118;28;20211;-58
2021/04/22 20:18:46;;;;;;;0.00;0.00;;;;;;;;;;5015332;28;20194;-59
2021/04/22 20:21:14;;;;;;;0.10;0.10;;;;;;;;;;5010607;28;20187;-58
2021/04/22 20:23:41;;;;;;;0.07;0.07;;;;;;;;;;5018125;28;20216;-58
2021/04/22 20:26:08;;;;;;;0.00;0.00;;;;;;;;;;5019034;28;20286;-58
2021/04/22 20:28:34;;;;;;;0.00;0.00;;;;;;;;;;5037423;28;20185;-58
2021/04/22 20:31:01;;;;;;;0.00;0.00;;;;;;;;;;5029400;28;20557;-58
2021/04/22 20:33:31;;;;;;;1.50;0.30;;;;;;;;;;5031648;28;20184;-58
2021/04/22 20:35:58;;;;;;;0.10;0.10;;;;;;;;;;5031799;28;20195;-58
2021/04/22 20:38:24;;;;;;;0.43;0.33;;;;;;;;;;5017801;28;20191;-58
2021/04/22 20:40:55;;;;;;;0.00;0.00;;;;;;;;;;5019857;28;20709;-59
2021/04/22 20:43:24;;;;;;;1.50;0.57;;;;;;;;;;5037010;28;20187;-58
2021/04/22 20:45:51;;;;;;;0.47;0.20;;;;;;;;;;5037332;28;20214;-58
2021/04/22 20:48:18;;;;;;;0.00;0.00;;;;;;;;;;5036677;28;20179;-58
2021/04/22 20:50:44;;;;;;;1.20;0.10;;;;;;;;;;5036815;28;20233;-58
2021/04/22 20:53:10;;;;;;;0.00;0.00;;;;;;;;;;5032756;28;20270;-58
2021/04/22 20:55:37;;;;;;;0.00;0.00;;;;;;;;;;5033051;28;20187;-58
2021/04/22 20:58:04;;;;;;;0.00;0.00;;;;;;;;;;5015241;28;20306;-58
2021/04/22 21:00:30;;;;;;;0.20;0.20;;;;;;;;;;5021023;28;20227;-64
2021/04/22 21:02:57;;;;;;;1.03;0.70;;;;;;;;;;5022889;28;20194;-59
2021/04/22 21:05:23;;;;;;;0.00;0.00;;;;;;;;;;5021200;28;20179;-65
2021/04/22 21:07:51;;;;;;;0.17;0.17;;;;;;;;;;5032580;28;20179;-66
2021/04/22 21:10:22;;;;;;;1.23;0.83;;;;;;;;;;5023345;28;20246;-65
2021/04/22 21:12:49;;;;;;;0.00;0.00;;;;;;;;;;5033552;28;20249;-64
2021/04/22 21:15:16;;;;;;;0.97;0.20;;;;;;;;;;5021840;28;20898;-59
2021/04/22 21:17:42;;;;;;;0.00;0.00;;;;;;;;;;5011304;28;20217;-58
2021/04/22 21:20:09;;;;;;;0.20;0.10;;;;;;;;;;5015339;28;20199;-59
2021/04/22 21:22:36;;;;;;;4.20;3.80;;;;;;;;;;5017259;28;20180;-58
2021/04/22 21:25:05;;;;;;;0.43;0.43;;;;;;;;;;5015618;28;20287;-58
2021/04/22 21:27:32;;;;;;;3.50;3.20;;;;;;;;;;5024332;28;21244;-60
2021/04/22 21:29:59;;;;;;;2.73;1.60;;;;;;;;;;5014995;28;20203;-65
2021/04/22 21:32:25;;;;;;;10.93;0.67;;;;;;;;;;5017930;28;20273;-67
2021/04/22 21:34:52;;;;;;;0.60;0.60;;;;;;;;;;5015982;28;20662;-69
2021/04/22 21:37:19;;;;;;;3.03;1.97;;;;;;;;;;5014938;28;20245;-60
2021/04/22 21:39:46;;;;;;;1.03;0.93;;;;;;;;;;5014643;28;20177;-57
2021/04/22 21:42:13;;;;;;;2.40;2.10;;;;;;;;;;5024917;28;20216;-59
2021/04/22 21:44:41;;;;;;;13.13;1.73;;;;;;;;;;5014900;28;20206;-68
2021/04/22 21:47:09;;;;;;;3.63;0.70;;;;;;;;;;5011030;28;20180;-58
2021/04/22 21:49:36;;;;;;;2.17;0.87;;;;;;;;;;5015164;28;20635;-65
2021/04/22 21:52:04;;;;;;;0.00;0.00;;;;;;;;;;5015418;28;20188;-65
2021/04/22 21:54:30;;;;;;;0.20;0.20;;;;;;;;;;5011791;28;20183;-65
2021/04/22 21:56:58;;;;;;;2.43;1.13;;;;;;;;;;5005275;28;20232;-63
2021/04/22 21:59:25;;;;;;;0.30;0.30;;;;;;;;;;5010126;28;20245;-66
2021/04/22 22:01:53;;;;;;;4.27;2.47;;;;;;;;;;5013713;28;20184;-67
2021/04/22 22:04:21;;;;;;;3.80;0.93;;;;;;;;;;5013092;28;20478;-68
2021/04/22 22:06:48;;;;;;;1.90;0.77;;;;;;;;;;5011768;28;20446;-58
2021/04/22 22:09:17;;;;;;;0.53;0.33;;;;;;;;;;5015658;28;20287;-59
2021/04/22 22:11:44;;;;;;;1.13;0.67;;;;;;;;;;5011856;28;20280;-59
2021/04/22 22:14:11;;;;;;;2.87;1.10;;;;;;;;;;5015962;28;20179;-58
2021/04/22 22:16:37;;;;;;;1.63;0.67;;;;;;;;;;5019580;28;20601;-58
2021/04/22 22:19:05;;;;;;;0.50;0.50;;;;;;;;;;5013290;28;20192;-67
2021/04/22 22:21:32;;;;;;;0.23;0.23;;;;;;;;;;5014647;28;20347;-65
2021/04/22 22:24:00;;;;;;;0.00;0.00;;;;;;;;;;5015703;28;20676;-66
2021/04/22 22:26:26;;;;;;;0.40;0.40;;;;;;;;;;5006288;28;20267;-59
2021/04/22 22:28:53;;;;;;;0.17;0.17;;;;;;;;;;5018452;28;20184;-66
2021/04/22 22:31:24;;;;;;;0.00;0.00;;;;;;;;;;5017585;28;20188;-65
2021/04/22 22:33:50;;;;;;;0.00;0.00;;;;;;;;;;5013722;28;20191;-66
2021/04/22 22:36:17;;;;;;;0.10;0.10;;;;;;;;;;5017635;28;20212;-65
2021/04/22 22:38:44;;;;;;;0.23;0.23;;;;;;;;;;5016654;28;20200;-65
2021/04/22 22:41:11;;;;;;;0.67;0.10;;;;;;;;;;5012056;28;20192;-65
2021/04/22 22:43:40;;;;;;;0.30;0.23;;;;;;;;;;5015392;28;20253;-65
2021/04/22 22:46:06;;;;;;;5.53;0.63;;;;;;;;;;5015316;28;20188;-64
2021/04/22 22:48:33;;;;;;;1.47;0.80;;;;;;;;;;5015311;28;20180;-65
2021/04/22 22:50:59;;;;;;;0.40;0.40;;;;;;;;;;5017558;28;20713;-65
2021/04/22 22:53:27;;;;;;;0.00;0.00;;;;;;;;;;5028710;28;20190;-65
2021/04/22 22:55:54;;;;;;;0.10;0.10;;;;;;;;;;5017943;28;20219;-62
2021/04/22 22:58:25;;;;;;;0.00;0.00;;;;;;;;;;5017328;28;20288;-62
2021/04/22 23:00:53;;;;;;;0.37;0.37;;;;;;;;;;5018109;28;20692;-66
2021/04/22 23:03:20;;;;;;;0.00;0.00;;;;;;;;;;5020693;28;20398;-66
2021/04/22 23:05:49;;;;;;;0.20;0.20;;;;;;;;;;5014583;28;20196;-63
2021/04/22 23:08:16;;;;;;;0.00;0.00;;;;;;;;;;5019457;28;20382;-68
2021/04/22 23:10:43;;;;;;;0.00;0.00;;;;;;;;;;5015418;28;20546;-66
2021/04/22 23:13:10;;;;;;;0.00;0.00;;;;;;;;;;5025030;28;20192;-59
2021/04/22 23:15:37;;;;;;;0.00;0.00;;;;;;;;;;5017654;28;20179;-65
2021/04/22 23:18:04;;;;;;;0.20;0.20;;;;;;;;;;5016257;28;20265;-60
2021/04/22 23:20:31;;;;;;;0.00;0.00;;;;;;;;;;5016394;28;20184;-59
2021/04/22 23:22:59;;;;;;;0.00;0.00;;;;;;;;;;5017157;28;20290;-59
2021/04/22 23:25:25;;;;;;;0.00;0.00;;;;;;;;;;5012912;28;20636;-65
2021/04/22 23:27:52;;;;;;;0.13;0.13;;;;;;;;;;5022214;28;20187;-60
2021/04/22 23:30:21;;;;;;;0.00;0.00;;;;;;;;;;5013063;28;20197;-59
2021/04/22 23:32:49;;;;;;;1.17;0.40;;;;;;;;;;5020963;28;20571;-59
2021/04/22 23:35:15;;;;;;;0.00;0.00;;;;;;;;;;5014275;28;20196;-59
2021/04/22 23:37:42;;;;;;;0.37;0.37;;;;;;;;;;5014109;28;20232;-59
2021/04/22 23:40:10;;;;;;;0.00;0.00;;;;;;;;;;5014098;28;20204;-59
2021/04/22 23:42:37;;;;;;;0.00;0.00;;;;;;;;;;5015001;28;20220;-58
2021/04/22 23:45:10;;;;;;;0.00;0.00;;;;;;;;;;5017160;28;20650;-59
2021/04/22 23:47:37;;;;;;;0.00;0.00;;;;;;;;;;5017319;28;20181;-59
2021/04/22 23:50:06;;;;;;;0.00;0.00;;;;;;;;;;5019959;28;20185;-59
2021/04/22 23:52:32;;;;;;;0.00;0.00;;;;;;;;;;5011967;28;20821;-59
2021/04/22 23:54:59;;;;;;;3.63;0.50;;;;;;;;;;5015557;28;20223;-59
2021/04/22 23:57:27;;;;;;;0.00;0.00;;;;;;;;;;5017427;28;20231;-59